Main page
METAR-TAF:

METAR-TAF

Airports :

Isfahan International Airport

Esfahān, Iran

latitude: 32-28N, longitude: 051-43E, elevation: 1590 m

Current weather observation

The report was made 23 minutes ago, at 04:00 UTC
Wind 4 kt from the Northwest
Temperature 26°C
Humidity 23%
Pressure 1015 hPa
Visibility 10 km or more
no clouds below 1500 m and no cumulonimbus

METAR: OIFM 180400Z 31004KT CAVOK 26/03 Q1014 A2996

Time: 08:53 (04:23 UTC)

Forecast

The report was made 5 hours and 23 minutes ago, at 23:00 UTC
Forecast valid from 18 at 00 UTC to 19 at 06 UTC
Wind 7 kt from the West/Northwest
Visibility: 7000 m
Temporary
from 18 at 00 UTC to 18 at 06 UTC
Visibility: 5000 m
haze
Temporary
from 18 at 06 UTC to 18 at 10 UTC
Wind 10 kt from the Southeast
Temporary
from 18 at 10 UTC to 18 at 17 UTC
Wind 12 kt from the East/Northeast

TAF: OIFM 172300Z 1800/1906 30007KT 7000 NSC TEMPO 1800/1806 5000 HZ TEMPO 1806/1810 14010KT TEMPO 1810/1817 07012KT

Weather observations and forecasts of more than 4000 airports (METAR and TAF reports).

The available stations are represented by yellow and red dots on the map.

Hover mouse over dot to see the name of the station.

Then click to see weather observations and forecasts.

To change the map : click on the green buttons with a black cross to zoom in, on the green button with a dash to zoom out, or on the green arrows for adjacent maps.


METAR-TAF: